createdAt,value
2019-04-26T00:05:03.073Z,95.40
2019-04-26T00:07:43.726Z,95.10
2019-04-26T00:16:32.059Z,95.70
2019-04-26T00:19:13.801Z,95.10
2019-04-26T00:21:54.598Z,95.20
2019-04-26T00:24:36.516Z,95.90
2019-04-26T00:27:18.930Z,96.30
2019-04-26T00:29:59.604Z,96.60
2019-04-26T00:32:40.412Z,97.50
2019-04-26T00:35:22.151Z,97.70
2019-04-26T00:38:02.877Z,98.40
2019-04-26T00:40:43.604Z,98.90
2019-04-26T00:43:24.675Z,99.20
2019-04-26T00:46:05.677Z,99.10
2019-04-26T00:48:46.439Z,99.10
2019-04-26T00:51:27.309Z,99.10
2019-04-26T00:54:08.122Z,99.20
2019-04-26T00:56:48.718Z,99.40
2019-04-26T00:59:29.229Z,99.60
2019-04-26T01:05:05.098Z,99.60
2019-04-26T01:07:47.424Z,99.70
2019-04-26T01:10:28.080Z,99.90
2019-04-26T01:13:08.731Z,99.90
2019-04-26T01:15:49.994Z,99.90
2019-04-26T01:18:30.463Z,99.90
2019-04-26T01:21:11.236Z,99.90
2019-04-26T01:23:52.072Z,99.90
2019-04-26T01:26:32.807Z,99.90
2019-04-26T01:29:13.187Z,99.90
2019-04-26T01:31:54.007Z,99.90
2019-04-26T01:34:34.503Z,99.90
2019-04-26T01:37:15.782Z,99.90
2019-04-26T01:39:58.870Z,99.90
2019-04-26T01:48:43.208Z,99.90
2019-04-26T01:51:24.541Z,99.90
2019-04-26T01:54:05.226Z,99.90
2019-04-26T01:56:45.929Z,99.90
2019-04-26T01:59:27.414Z,99.90
2019-04-26T02:02:27.756Z,99.90
2019-04-26T02:05:13.362Z,99.90
2019-04-26T02:07:54.786Z,99.90
2019-04-26T02:10:35.786Z,99.90
2019-04-26T02:13:16.387Z,99.90
2019-04-26T02:15:57.154Z,99.90
2019-04-26T02:18:37.570Z,99.90
2019-04-26T02:21:26.604Z,99.90
2019-04-26T02:24:28.535Z,99.90
2019-04-26T02:27:28.843Z,99.90
2019-04-26T02:30:10.204Z,99.90
2019-04-26T02:32:50.939Z,99.90
2019-04-26T02:35:32.212Z,99.90
2019-04-26T02:38:13.980Z,99.90
2019-04-26T02:40:54.610Z,99.90
2019-04-26T02:43:35.846Z,99.90
2019-04-26T02:46:24.121Z,99.90
2019-04-26T02:49:24.520Z,99.90
2019-04-26T02:52:04.852Z,99.90
2019-04-26T02:54:45.792Z,99.90
2019-04-26T02:57:26.264Z,99.90
2019-04-26T03:00:06.897Z,99.90
2019-04-26T03:02:47.543Z,99.90
2019-04-26T03:05:28.508Z,99.90
2019-04-26T03:08:10.275Z,99.90
2019-04-26T03:10:51.044Z,99.90
2019-04-26T03:16:52.907Z,99.90
2019-04-26T03:19:38.185Z,99.90
2019-04-26T03:22:19.247Z,99.90
2019-04-26T03:24:59.928Z,99.90
2019-04-26T03:27:43.041Z,99.90
2019-04-26T03:30:24.091Z,99.90
2019-04-26T03:33:05.784Z,99.90
2019-04-26T03:36:05.381Z,99.90
2019-04-26T03:38:47.974Z,99.90
2019-04-26T03:41:30.852Z,99.90
2019-04-26T03:44:11.798Z,99.90
2019-04-26T03:46:52.507Z,99.90
2019-04-26T03:49:33.891Z,99.90
2019-04-26T03:52:15.805Z,99.90
2019-04-26T03:54:56.890Z,99.90
2019-04-26T03:57:44.857Z,99.90
2019-04-26T04:00:47.019Z,99.90
2019-04-26T04:03:50.432Z,99.90
2019-04-26T04:06:31.444Z,99.90
2019-04-26T04:09:12.068Z,99.90
2019-04-26T04:12:10.176Z,99.90
2019-04-26T04:14:38.302Z,99.90
2019-04-26T04:20:46.187Z,99.90
2019-04-26T04:23:27.621Z,99.90
2019-04-26T04:26:08.141Z,99.90
2019-04-26T04:28:49.894Z,99.90
2019-04-26T04:31:30.599Z,99.90
2019-04-26T04:34:11.940Z,99.90
2019-04-26T04:36:53.852Z,99.90
2019-04-26T04:39:34.360Z,99.90
2019-04-26T04:42:20.246Z,99.90
2019-04-26T04:47:57.429Z,99.90
2019-04-26T04:50:43.353Z,99.90
2019-04-26T04:53:24.173Z,99.90
2019-04-26T04:56:05.151Z,99.90
2019-04-26T04:58:46.339Z,99.90
2019-04-26T05:04:25.421Z,99.90
2019-04-26T05:07:11.663Z,99.90
2019-04-26T05:09:53.670Z,99.90
2019-04-26T05:12:34.827Z,99.90
2019-04-26T05:15:19.731Z,99.90
2019-04-26T05:18:00.223Z,99.90
2019-04-26T05:20:40.963Z,99.90
2019-04-26T05:23:22.023Z,99.90
2019-04-26T05:26:22.344Z,99.90
2019-04-26T05:29:04.412Z,99.90
2019-04-26T05:31:47.068Z,99.90
2019-04-26T05:34:32.585Z,99.90
2019-04-26T05:37:13.367Z,99.90
2019-04-26T05:39:55.307Z,99.90
2019-04-26T05:48:33.367Z,99.90
2019-04-26T05:51:20.176Z,99.90
2019-04-26T05:54:20.211Z,99.90
2019-04-26T05:57:03.569Z,99.90
2019-04-26T05:59:44.062Z,99.90
2019-04-26T06:02:43.839Z,99.90
2019-04-26T06:05:43.584Z,99.90
2019-04-26T06:11:33.392Z,99.90
2019-04-26T06:14:36.551Z,99.90
2019-04-26T06:20:22.567Z,99.90
2019-04-26T06:23:00.675Z,99.90
2019-04-26T06:25:47.071Z,99.90
2019-04-26T06:28:28.248Z,99.90
2019-04-26T06:31:08.706Z,99.90
2019-04-26T06:33:49.171Z,99.90
2019-04-26T06:39:27.220Z,99.90
2019-04-26T06:42:08.118Z,99.90
2019-04-26T06:44:50.631Z,99.90
2019-04-26T06:50:47.645Z,99.90
2019-04-26T06:53:28.820Z,99.90
2019-04-26T06:59:17.352Z,99.90
2019-04-26T07:01:59.177Z,99.90
2019-04-26T07:04:40.302Z,99.90
2019-04-26T07:07:21.039Z,99.90
2019-04-26T07:10:02.109Z,99.90
2019-04-26T07:15:37.939Z,99.90
2019-04-26T07:18:18.763Z,99.90
2019-04-26T07:27:01.458Z,99.90
2019-04-26T07:29:42.763Z,99.90
2019-04-26T07:32:23.699Z,99.90
2019-04-26T07:35:08.628Z,99.90
2019-04-26T07:37:49.027Z,99.90
2019-04-26T07:43:41.406Z,99.90
2019-04-26T07:46:21.891Z,99.90
2019-04-26T07:49:03.280Z,99.90
2019-04-26T07:51:44.470Z,99.90
2019-04-26T07:54:25.346Z,99.90
2019-04-26T07:57:06.670Z,99.90
2019-04-26T07:59:47.588Z,99.90
2019-04-26T08:02:47.408Z,99.90
2019-04-26T08:15:35.608Z,99.90
2019-04-26T08:24:56.092Z,99.90
2019-04-26T08:28:05.635Z,99.90
2019-04-26T08:31:19.322Z,99.90
2019-04-26T08:34:28.525Z,99.90
2019-04-26T08:37:17.755Z,99.90
2019-04-26T08:39:57.469Z,99.90
2019-04-26T08:42:43.911Z,99.90
2019-04-26T08:48:48.671Z,99.90
2019-04-26T08:51:29.778Z,99.90
2019-04-26T08:57:10.005Z,99.90
2019-04-26T08:59:51.280Z,99.90
2019-04-26T09:02:50.708Z,99.90
2019-04-26T09:05:51.414Z,99.90
2019-04-26T09:08:32.527Z,99.90
2019-04-26T09:11:25.433Z,99.90
2019-04-26T09:13:55.577Z,99.90
2019-04-26T09:16:36.224Z,99.90
2019-04-26T09:19:16.941Z,99.90
2019-04-26T09:22:22.650Z,99.90
2019-04-26T09:25:08.586Z,99.90
2019-04-26T09:27:58.937Z,99.90
2019-04-26T09:30:48.040Z,99.90
2019-04-26T09:33:40.303Z,99.90
2019-04-26T09:36:20.699Z,99.90
2019-04-26T09:39:03.963Z,99.90
2019-04-26T09:41:44.375Z,99.90
2019-04-26T09:44:44.155Z,99.90
2019-04-26T09:47:44.425Z,99.90
2019-04-26T09:50:31.315Z,99.90
2019-04-26T09:53:12.259Z,99.90
2019-04-26T09:55:52.808Z,99.90
2019-04-26T09:58:33.115Z,99.90
2019-04-26T10:01:14.190Z,99.90
2019-04-26T10:03:54.824Z,99.90
2019-04-26T10:06:35.535Z,99.90
2019-04-26T10:09:21.272Z,99.90
2019-04-26T10:12:07.643Z,99.90
2019-04-26T10:14:53.418Z,99.90
2019-04-26T10:17:33.911Z,99.90
2019-04-26T10:20:14.896Z,99.90
2019-04-26T10:22:55.283Z,99.90
2019-04-26T10:25:37.113Z,99.90
2019-04-26T10:28:18.305Z,99.90
2019-04-26T10:30:58.812Z,99.90
2019-04-26T10:33:39.131Z,99.90
2019-04-26T10:36:20.033Z,99.90
2019-04-26T10:39:00.419Z,99.90
2019-04-26T10:41:41.059Z,99.90
2019-04-26T10:44:21.459Z,99.90
2019-04-26T10:47:04.359Z,99.90
2019-04-26T10:49:44.679Z,99.90
2019-04-26T10:56:06.636Z,99.90
2019-04-26T10:58:57.702Z,99.90
2019-04-26T11:01:39.130Z,99.90
2019-04-26T11:04:20.087Z,99.90
2019-04-26T11:07:01.902Z,99.90
2019-04-26T11:09:43.439Z,99.90
2019-04-26T11:12:24.592Z,99.90
2019-04-26T11:15:06.235Z,99.90
2019-04-26T11:17:49.972Z,99.90
2019-04-26T11:20:29.580Z,99.90
2019-04-26T11:23:11.741Z,99.90
2019-04-26T11:25:53.579Z,99.90
2019-04-26T11:28:34.284Z,99.90
2019-04-26T11:31:15.411Z,99.90
2019-04-26T11:34:05.037Z,99.90
2019-04-26T11:36:41.783Z,99.90
2019-04-26T11:39:21.373Z,99.90
2019-04-26T11:42:02.372Z,99.90
2019-04-26T11:44:44.636Z,99.90
2019-04-26T11:47:25.711Z,99.90
2019-04-26T11:50:06.216Z,99.90
2019-04-26T11:52:46.530Z,99.90
2019-04-26T11:55:29.988Z,99.90
2019-04-26T11:58:10.062Z,99.90
2019-04-26T12:00:56.235Z,99.90
2019-04-26T12:03:38.345Z,99.90
2019-04-26T12:06:38.565Z,99.90
2019-04-26T12:09:38.995Z,99.90
2019-04-26T12:12:19.662Z,99.90
2019-04-26T12:15:03.895Z,99.90
2019-04-26T12:17:43.671Z,99.90
2019-04-26T12:20:26.935Z,99.90
2019-04-26T12:23:07.442Z,99.90
2019-04-26T12:25:48.354Z,99.90
2019-04-26T12:28:29.448Z,99.90
2019-04-26T12:31:10.025Z,99.90
2019-04-26T12:33:50.638Z,99.90
2019-04-26T12:36:31.331Z,99.90
2019-04-26T12:39:14.199Z,99.90
2019-04-26T12:41:54.723Z,99.90
2019-04-26T12:47:49.006Z,99.90
2019-04-26T12:50:34.192Z,99.90
2019-04-26T12:53:12.561Z,99.90
2019-04-26T12:55:56.215Z,99.90
2019-04-26T12:58:36.273Z,99.90
2019-04-26T13:01:17.144Z,99.90
2019-04-26T13:04:05.127Z,99.90
2019-04-26T13:06:50.831Z,99.90
2019-04-26T13:09:33.735Z,99.90
2019-04-26T13:15:25.466Z,99.90
2019-04-26T13:18:07.231Z,99.90
2019-04-26T13:20:48.207Z,99.90
2019-04-26T13:23:29.973Z,99.90
2019-04-26T13:26:11.280Z,99.90
2019-04-26T13:28:52.598Z,99.90
2019-04-26T13:31:34.618Z,99.90
2019-04-26T13:34:15.781Z,99.90
2019-04-26T13:36:59.196Z,99.90
2019-04-26T13:39:39.229Z,99.90
2019-04-26T13:42:20.476Z,99.90
2019-04-26T13:48:33.180Z,99.90
2019-04-26T13:51:14.302Z,99.90
2019-04-26T13:53:57.406Z,99.90
2019-04-26T13:56:37.940Z,99.90
2019-04-26T13:59:19.206Z,99.90
2019-04-26T14:02:10.795Z,99.90
2019-04-26T14:04:42.678Z,99.90
2019-04-26T14:07:24.468Z,99.90
2019-04-26T14:10:06.011Z,99.90
2019-04-26T14:12:49.858Z,99.90
2019-04-26T14:15:29.390Z,99.90
2019-04-26T14:18:10.800Z,99.90
2019-04-26T14:20:54.804Z,99.90
2019-04-26T14:23:52.939Z,99.90
2019-04-26T14:26:42.558Z,99.90
2019-04-26T14:29:23.755Z,99.90
2019-04-26T14:32:05.139Z,99.90
2019-04-26T14:34:45.830Z,99.90
2019-04-26T14:37:26.505Z,99.90
2019-04-26T14:40:16.893Z,99.90
2019-04-26T14:42:49.872Z,99.90
2019-04-26T14:45:30.755Z,99.90
2019-04-26T14:48:20.496Z,99.90
2019-04-26T14:51:07.231Z,99.90
2019-04-26T14:53:38.073Z,99.90
2019-04-26T14:56:18.623Z,99.90
2019-04-26T14:59:01.710Z,99.90
2019-04-26T15:05:17.786Z,99.90
2019-04-26T15:07:58.621Z,99.90
2019-04-26T15:10:45.780Z,99.90
2019-04-26T15:13:23.653Z,99.90
2019-04-26T15:16:10.520Z,99.90
2019-04-26T15:18:37.204Z,99.90
2019-04-26T15:21:27.438Z,99.90
2019-04-26T15:24:15.695Z,99.90
2019-04-26T15:27:04.237Z,99.90
2019-04-26T15:30:13.297Z,99.90
2019-04-26T15:33:03.091Z,99.90
2019-04-26T15:35:44.757Z,99.90
2019-04-26T15:38:25.593Z,99.90
2019-04-26T15:44:32.992Z,99.90
2019-04-26T15:47:34.313Z,99.90
2019-04-26T15:50:34.531Z,99.90
2019-04-26T15:53:17.203Z,99.90
2019-04-26T15:55:58.482Z,99.90
2019-04-26T15:58:45.886Z,99.90
2019-04-26T16:01:21.481Z,99.90
2019-04-26T16:04:06.282Z,99.90
2019-04-26T16:06:45.201Z,99.90
2019-04-26T16:09:25.948Z,99.90
2019-04-26T16:12:06.452Z,99.90
2019-04-26T16:14:46.890Z,99.90
2019-04-26T16:17:27.495Z,99.90
2019-04-26T16:20:08.075Z,99.90
2019-04-26T16:25:34.415Z,99.90
2019-04-26T16:28:33.338Z,99.90
2019-04-26T16:31:34.322Z,99.90
2019-04-26T16:34:16.623Z,99.90
2019-04-26T16:36:57.290Z,99.90
2019-04-26T16:39:40.052Z,99.90
2019-04-26T16:42:21.023Z,99.90
2019-04-26T16:45:04.684Z,99.90
2019-04-26T16:47:48.507Z,99.90
2019-04-26T16:50:31.552Z,99.90
2019-04-26T16:53:36.392Z,99.90
2019-04-26T16:55:53.413Z,99.90
2019-04-26T16:58:38.090Z,99.90
2019-04-26T17:01:17.113Z,99.90
2019-04-26T17:03:57.534Z,99.90
2019-04-26T17:06:44.282Z,99.90
2019-04-26T17:09:23.633Z,99.90
2019-04-26T17:12:03.962Z,99.90
2019-04-26T17:14:47.786Z,99.90
2019-04-26T17:17:25.486Z,99.90
2019-04-26T17:20:13.600Z,99.90
2019-04-26T17:23:25.436Z,99.90
2019-04-26T17:26:33.655Z,99.90
2019-04-26T17:29:19.742Z,99.90
2019-04-26T17:35:17.434Z,99.90
2019-04-26T17:38:05.585Z,99.90
2019-04-26T17:40:53.999Z,99.90
2019-04-26T17:43:46.776Z,99.90
2019-04-26T17:46:32.614Z,99.90
2019-04-26T17:52:16.284Z,99.90
2019-04-26T17:55:07.854Z,99.90
2019-04-26T17:58:09.418Z,99.90
2019-04-26T18:00:46.330Z,99.90
2019-04-26T18:03:34.887Z,99.90
2019-04-26T18:06:29.980Z,99.90
2019-04-26T18:09:38.216Z,99.90
2019-04-26T18:12:03.618Z,99.90
2019-04-26T18:14:51.806Z,99.90
2019-04-26T18:17:58.908Z,99.90
2019-04-26T18:21:06.104Z,99.90
2019-04-26T18:23:56.991Z,99.90
2019-04-26T18:26:43.963Z,99.90
2019-04-26T18:29:33.580Z,99.90
2019-04-26T18:32:22.144Z,99.90
2019-04-26T18:35:15.226Z,99.90
2019-04-26T18:37:53.700Z,99.90
2019-04-26T18:40:56.537Z,99.90
2019-04-26T18:43:23.568Z,99.90
2019-04-26T18:46:06.468Z,99.90
2019-04-26T18:48:45.929Z,99.90
2019-04-26T18:51:26.336Z,99.90
2019-04-26T18:57:18.972Z,99.90
2019-04-26T18:59:59.828Z,99.90
2019-04-26T19:02:40.803Z,99.90
2019-04-26T19:05:27.033Z,99.90
2019-04-26T19:08:05.093Z,99.90
2019-04-26T19:10:58.024Z,99.90
2019-04-26T19:19:35.535Z,99.90
2019-04-26T19:22:04.788Z,99.90
2019-04-26T19:24:54.204Z,99.90
2019-04-26T19:27:49.622Z,99.90
2019-04-26T19:30:32.353Z,99.90
2019-04-26T19:33:21.998Z,99.90
2019-04-26T19:36:03.350Z,99.90
2019-04-26T19:38:49.677Z,99.90
2019-04-26T19:41:27.191Z,99.90
2019-04-26T19:44:08.603Z,99.90
2019-04-26T19:49:57.144Z,99.90
2019-04-26T19:53:04.784Z,99.90
2019-04-26T19:56:24.927Z,99.90
2019-04-26T19:59:09.055Z,99.90
2019-04-26T20:01:57.774Z,99.90
2019-04-26T20:04:46.815Z,99.90
2019-04-26T20:07:35.242Z,99.90
2019-04-26T20:10:23.709Z,99.90
2019-04-26T20:13:15.220Z,99.90
2019-04-26T20:16:02.616Z,99.90
2019-04-26T20:18:52.338Z,99.90
2019-04-26T20:21:41.431Z,99.90
2019-04-26T20:24:30.915Z,99.90
2019-04-26T20:27:20.513Z,99.90
2019-04-26T20:33:18.175Z,99.90
2019-04-26T20:36:03.404Z,99.90
2019-04-26T20:38:45.670Z,99.90
2019-04-26T20:41:24.042Z,99.90
2019-04-26T20:44:09.800Z,99.90
2019-04-26T20:46:47.402Z,99.90
2019-04-26T20:49:28.095Z,99.90
2019-04-26T20:52:08.891Z,99.90
2019-04-26T20:54:51.202Z,99.90
2019-04-26T20:57:34.684Z,99.90
2019-04-26T21:00:15.485Z,99.90
2019-04-26T21:03:01.322Z,99.90
2019-04-26T21:05:46.275Z,99.90
2019-04-26T21:08:25.731Z,99.90
2019-04-26T21:11:04.397Z,99.90
2019-04-26T21:13:44.932Z,99.90
2019-04-26T21:16:25.595Z,99.90
2019-04-26T21:19:06.354Z,99.90
2019-04-26T21:21:48.360Z,99.90
2019-04-26T21:24:32.236Z,99.90
2019-04-26T21:30:14.867Z,99.90
2019-04-26T21:33:14.726Z,99.90
2019-04-26T21:39:22.982Z,99.90
2019-04-26T21:42:04.151Z,99.90
2019-04-26T21:44:51.130Z,99.90
2019-04-26T21:47:31.939Z,99.90
2019-04-26T21:50:10.163Z,99.90
2019-04-26T21:52:51.200Z,99.90
2019-04-26T21:55:38.187Z,99.90
2019-04-26T21:58:14.718Z,99.90
2019-04-26T22:01:17.419Z,99.90
2019-04-26T22:03:58.377Z,99.90
2019-04-26T22:06:39.752Z,99.90
2019-04-26T22:09:39.391Z,99.90
2019-04-26T22:12:23.191Z,99.90
2019-04-26T22:15:23.536Z,99.90
2019-04-26T22:18:10.310Z,99.90
2019-04-26T22:27:05.579Z,99.90
2019-04-26T22:29:47.563Z,99.90
2019-04-26T22:32:28.991Z,99.90
2019-04-26T22:35:13.399Z,99.90
2019-04-26T22:37:53.752Z,99.90
2019-04-26T22:40:34.134Z,99.90
2019-04-26T22:43:34.066Z,99.90
2019-04-26T22:46:46.502Z,99.90
2019-04-26T22:49:16.887Z,99.90
2019-04-26T22:51:57.746Z,99.90
2019-04-26T22:54:44.660Z,99.90
2019-04-26T22:57:20.855Z,99.90
2019-04-26T23:00:01.674Z,99.90
2019-04-26T23:02:43.653Z,99.90
2019-04-26T23:05:24.987Z,99.90
2019-04-26T23:08:05.956Z,99.90
2019-04-26T23:10:49.506Z,99.90
2019-04-26T23:17:04.165Z,99.90
2019-04-26T23:20:03.013Z,99.90
2019-04-26T23:22:44.679Z,99.90
2019-04-26T23:25:27.713Z,99.90
2019-04-26T23:28:08.902Z,99.90
2019-04-26T23:30:49.554Z,99.90
2019-04-26T23:33:30.242Z,99.90
2019-04-26T23:36:10.614Z,99.90
2019-04-26T23:38:53.141Z,99.90
2019-04-26T23:41:37.568Z,99.90
2019-04-26T23:44:16.451Z,99.90
2019-04-26T23:47:01.348Z,99.90
2019-04-26T23:49:40.119Z,99.90
2019-04-26T23:52:20.585Z,99.90
2019-04-26T23:55:05.562Z,99.90
2019-04-26T23:57:44.409Z,99.90
